createdAt,value
2018-06-11T00:01:23.716Z,20.97
2018-06-11T00:03:57.675Z,20.30
2018-06-11T00:06:31.519Z,21.55
2018-06-11T00:09:07.860Z,21.70
2018-06-11T00:11:41.646Z,22.73
2018-06-11T00:14:15.469Z,21.37
2018-06-11T00:16:49.403Z,21.57
2018-06-11T00:19:23.735Z,19.60
2018-06-11T00:21:57.526Z,21.87
2018-06-11T00:24:31.531Z,19.73
2018-06-11T00:27:05.430Z,19.17
2018-06-11T00:29:39.153Z,20.20
2018-06-11T00:32:13.076Z,21.52
2018-06-11T00:34:47.281Z,19.70
2018-06-11T00:37:21.285Z,20.73
2018-06-11T00:39:55.458Z,21.02
2018-06-11T00:42:29.315Z,18.02
2018-06-11T00:45:03.177Z,20.20
2018-06-11T00:47:37.280Z,19.83
2018-06-11T00:50:11.626Z,23.70
2018-06-11T00:52:45.715Z,23.67
2018-06-11T00:55:20.218Z,20.60
2018-06-11T00:57:54.223Z,20.00
2018-06-11T01:00:28.328Z,19.57
2018-06-11T01:03:02.044Z,23.83
2018-06-11T01:05:36.194Z,19.50
2018-06-11T01:08:10.036Z,21.00
2018-06-11T01:10:44.031Z,22.17
2018-06-11T01:13:18.219Z,22.43
2018-06-11T01:15:52.429Z,18.60
2018-06-11T01:18:26.246Z,19.27
2018-06-11T01:21:00.296Z,20.53
2018-06-11T01:23:34.031Z,21.17
2018-06-11T01:26:07.880Z,19.30
2018-06-11T01:28:42.019Z,19.98
2018-06-11T01:31:16.613Z,19.60
2018-06-11T01:33:50.479Z,22.77
2018-06-11T01:36:24.349Z,20.73
2018-06-11T01:38:58.430Z,20.97
2018-06-11T01:41:32.239Z,24.10
2018-06-11T01:44:06.254Z,23.40
2018-06-11T01:46:39.961Z,21.30
2018-06-11T01:49:14.176Z,23.03
2018-06-11T01:51:47.875Z,23.07
2018-06-11T01:54:21.870Z,23.30
2018-06-11T01:56:55.774Z,23.63
2018-06-11T01:59:29.825Z,20.97
2018-06-11T02:02:03.713Z,22.10
2018-06-11T02:04:37.679Z,21.83
2018-06-11T02:07:12.034Z,23.10
2018-06-11T02:09:46.145Z,21.23
2018-06-11T02:12:20.200Z,21.27
2018-06-11T02:14:54.152Z,26.57
2018-06-11T02:17:28.285Z,24.10
2018-06-11T02:20:02.269Z,22.47
2018-06-11T02:22:36.169Z,23.50
2018-06-11T02:25:10.096Z,23.03
2018-06-11T02:27:44.556Z,25.57
2018-06-11T02:30:18.569Z,21.70
2018-06-11T02:32:52.524Z,22.93
2018-06-11T02:35:26.798Z,23.30
2018-06-11T02:38:00.579Z,24.60
2018-06-11T02:40:34.725Z,24.40
2018-06-11T02:43:08.694Z,22.50
2018-06-11T02:45:42.830Z,24.67
2018-06-11T02:48:16.635Z,22.83
2018-06-11T02:50:54.934Z,22.00
2018-06-11T02:53:28.915Z,22.77
2018-06-11T02:56:02.989Z,24.90
2018-06-11T02:58:36.847Z,21.63
2018-06-11T03:01:10.699Z,21.70
2018-06-11T03:03:44.530Z,22.57
2018-06-11T03:06:18.941Z,26.43
2018-06-11T03:08:52.639Z,28.03
2018-06-11T03:11:26.706Z,23.60
2018-06-11T03:14:00.704Z,23.67
2018-06-11T03:16:34.600Z,24.50
2018-06-11T03:19:08.445Z,25.43
2018-06-11T03:21:42.543Z,25.37
2018-06-11T03:24:16.507Z,23.53
2018-06-11T03:26:50.838Z,23.00
2018-06-11T03:29:25.079Z,23.87
2018-06-11T03:31:59.120Z,23.73
2018-06-11T03:34:33.261Z,22.90
2018-06-11T03:37:07.376Z,24.07
2018-06-11T03:39:41.420Z,25.50
2018-06-11T03:42:15.341Z,25.13
2018-06-11T03:44:49.748Z,21.87
2018-06-11T03:47:23.598Z,21.57
2018-06-11T03:49:57.598Z,21.70
2018-06-11T03:52:31.411Z,25.07
2018-06-11T03:55:05.439Z,24.43
2018-06-11T03:57:39.254Z,26.90
2018-06-11T04:00:13.199Z,24.50
2018-06-11T04:02:47.324Z,19.87
2018-06-11T04:05:21.443Z,23.23
2018-06-11T04:07:55.421Z,23.43
2018-06-11T04:10:29.200Z,24.03
2018-06-11T04:13:03.424Z,25.53
2018-06-11T04:15:37.417Z,23.93
2018-06-11T04:18:11.674Z,25.70
2018-06-11T04:20:45.506Z,25.90
2018-06-11T04:23:19.645Z,26.67
2018-06-11T04:25:53.899Z,22.27
2018-06-11T04:28:28.258Z,23.33
2018-06-11T04:31:02.099Z,24.37
2018-06-11T04:33:36.009Z,22.53
2018-06-11T04:36:10.854Z,22.93
2018-06-11T04:38:44.740Z,24.80
2018-06-11T04:41:18.546Z,24.30
2018-06-11T04:43:53.210Z,28.30
2018-06-11T04:46:27.271Z,23.67
2018-06-11T04:49:01.067Z,29.93
2018-06-11T04:51:34.849Z,23.70
2018-06-11T04:54:09.420Z,23.33
2018-06-11T04:56:47.320Z,26.47
2018-06-11T04:59:21.051Z,26.43
2018-06-11T05:01:55.435Z,24.43
2018-06-11T05:04:29.339Z,26.00
2018-06-11T05:07:03.331Z,23.50
2018-06-11T05:09:37.452Z,26.17
2018-06-11T05:12:11.467Z,27.30
2018-06-11T05:14:45.901Z,25.70
2018-06-11T05:17:20.951Z,29.83
2018-06-11T05:19:54.806Z,24.87
2018-06-11T05:22:28.960Z,28.80
2018-06-11T05:25:02.757Z,25.33
2018-06-11T05:27:36.876Z,25.37
2018-06-11T05:30:11.076Z,29.20
2018-06-11T05:32:45.241Z,28.00
2018-06-11T05:35:19.212Z,28.63
2018-06-11T05:37:53.205Z,25.97
2018-06-11T05:40:27.281Z,24.90
2018-06-11T05:43:01.182Z,23.17
2018-06-11T05:45:35.175Z,26.57
2018-06-11T05:48:09.433Z,28.17
2018-06-11T05:50:43.181Z,24.60
2018-06-11T05:53:17.191Z,26.97
2018-06-11T05:55:51.181Z,25.13
2018-06-11T05:58:25.399Z,28.93
2018-06-11T06:00:59.856Z,24.63
2018-06-11T06:03:34.176Z,28.87
2018-06-11T06:06:08.099Z,27.30
2018-06-11T06:08:42.148Z,29.27
2018-06-11T06:11:16.204Z,26.63
2018-06-11T06:13:50.391Z,26.07
2018-06-11T06:16:24.418Z,27.20
2018-06-11T06:18:58.517Z,28.43
2018-06-11T06:21:32.556Z,25.37
2018-06-11T06:24:06.525Z,22.95
2018-06-11T06:26:40.368Z,24.93
2018-06-11T06:29:14.259Z,26.07
2018-06-11T06:31:48.140Z,25.57
2018-06-11T06:34:23.438Z,29.33
2018-06-11T06:36:57.457Z,22.33
2018-06-11T06:39:31.305Z,22.67
2018-06-11T06:42:05.506Z,24.12
2018-06-11T06:44:39.600Z,23.73
2018-06-11T06:47:13.517Z,22.17
2018-06-11T06:49:47.440Z,23.50
2018-06-11T06:52:21.384Z,22.40
2018-06-11T06:54:55.216Z,23.50
2018-06-11T06:57:29.160Z,23.70
2018-06-11T07:00:03.302Z,21.65
2018-06-11T07:02:37.205Z,22.67
2018-06-11T07:05:11.271Z,21.48
2018-06-11T07:07:45.161Z,21.82
2018-06-11T07:10:19.770Z,20.80
2018-06-11T07:12:53.766Z,17.77
2018-06-11T07:15:27.771Z,19.43
2018-06-11T07:18:01.614Z,20.50
2018-06-11T07:20:35.505Z,18.07
2018-06-11T07:23:09.575Z,16.27
2018-06-11T07:25:43.516Z,18.00
2018-06-11T07:28:17.504Z,17.60
2018-06-11T07:30:51.647Z,17.05
2018-06-11T07:33:29.947Z,14.20
2018-06-11T07:36:03.929Z,16.05
2018-06-11T07:38:37.935Z,16.40
2018-06-11T07:41:11.783Z,15.78
2018-06-11T07:43:45.689Z,14.30
2018-06-11T07:46:20.025Z,15.30
2018-06-11T07:48:54.007Z,14.10
2018-06-11T07:51:28.950Z,13.85
2018-06-11T07:54:03.080Z,14.63
2018-06-11T07:56:36.968Z,14.50
2018-06-11T07:59:11.317Z,13.95
2018-06-11T08:01:46.116Z,14.58
2018-06-11T08:04:19.975Z,15.32
2018-06-11T08:06:54.159Z,12.45
2018-06-11T08:09:28.007Z,14.63
2018-06-11T08:12:01.941Z,13.50
2018-06-11T08:14:36.054Z,13.75
2018-06-11T08:17:09.980Z,14.93
2018-06-11T08:19:43.870Z,14.30
2018-06-11T08:22:17.783Z,14.75
2018-06-11T08:24:52.251Z,14.03
2018-06-11T08:27:26.482Z,13.53
2018-06-11T08:30:00.297Z,13.93
2018-06-11T08:32:34.530Z,12.45
2018-06-11T08:35:08.802Z,13.10
2018-06-11T08:37:43.094Z,12.73
2018-06-11T08:40:16.920Z,11.65
2018-06-11T08:42:50.917Z,12.18
2018-06-11T08:45:25.331Z,12.20
2018-06-11T08:47:59.941Z,12.55
2018-06-11T08:50:33.855Z,12.10
2018-06-11T08:53:07.782Z,11.22
2018-06-11T08:55:41.815Z,11.55
2018-06-11T08:58:15.950Z,10.75
2018-06-11T09:00:50.570Z,11.08
2018-06-11T09:03:25.460Z,10.80
2018-06-11T09:05:59.772Z,10.82
2018-06-11T09:08:33.486Z,9.85
2018-06-11T09:11:07.623Z,11.57
2018-06-11T09:13:42.158Z,10.18
2018-06-11T09:16:16.120Z,10.43
2018-06-11T09:18:50.096Z,9.80
2018-06-11T09:21:23.971Z,10.58
2018-06-11T09:23:58.409Z,10.40
2018-06-11T09:26:33.496Z,10.70
2018-06-11T09:29:07.422Z,10.95
2018-06-11T09:31:41.631Z,10.58
2018-06-11T09:34:16.149Z,11.22
2018-06-11T09:36:50.242Z,9.98
2018-06-11T09:39:24.800Z,10.28
2018-06-11T09:41:58.869Z,10.93
2018-06-11T09:44:32.915Z,12.05
2018-06-11T09:47:07.301Z,12.35
2018-06-11T09:49:41.295Z,10.23
2018-06-11T09:52:15.985Z,9.28
2018-06-11T09:54:50.314Z,10.60
2018-06-11T09:57:24.577Z,8.98
2018-06-11T09:59:58.786Z,8.60
2018-06-11T10:02:32.660Z,8.90
2018-06-11T10:05:07.030Z,8.68
2018-06-11T10:07:41.067Z,8.55
2018-06-11T10:10:16.117Z,9.20
2018-06-11T10:12:50.422Z,7.78
2018-06-11T10:15:24.505Z,9.28
2018-06-11T10:17:58.600Z,9.48
2018-06-11T10:20:32.626Z,8.98
2018-06-11T10:23:06.795Z,9.85
2018-06-11T10:25:40.881Z,8.13
2018-06-11T10:28:14.973Z,8.93
2018-06-11T10:30:48.981Z,8.00
2018-06-11T10:33:27.521Z,8.78
2018-06-11T10:36:01.382Z,9.00
2018-06-11T10:38:35.602Z,8.70
2018-06-11T10:41:09.415Z,9.48
2018-06-11T10:43:44.341Z,9.20
2018-06-11T10:46:18.730Z,8.73
2018-06-11T10:48:52.790Z,9.10
2018-06-11T10:51:26.993Z,8.48
2018-06-11T10:54:00.818Z,7.53
2018-06-11T10:56:34.826Z,7.87
2018-06-11T10:59:08.948Z,8.40
2018-06-11T11:01:43.107Z,8.95
2018-06-11T11:04:17.156Z,8.28
2018-06-11T11:06:51.373Z,8.33
2018-06-11T11:09:25.436Z,7.30
2018-06-11T11:11:59.350Z,7.53
2018-06-11T11:14:33.696Z,7.78
2018-06-11T11:17:08.100Z,6.83
2018-06-11T11:19:42.066Z,8.03
2018-06-11T11:22:16.057Z,8.88
2018-06-11T11:24:50.071Z,7.78
2018-06-11T11:27:24.298Z,8.53
2018-06-11T11:29:58.381Z,7.80
2018-06-11T11:32:32.296Z,8.08
2018-06-11T11:35:06.468Z,8.28
2018-06-11T11:37:40.428Z,7.53
2018-06-11T11:40:14.408Z,8.78
2018-06-11T11:42:48.570Z,8.35
2018-06-11T11:45:22.596Z,6.97
2018-06-11T11:47:57.593Z,8.70
2018-06-11T11:50:31.708Z,6.97
2018-06-11T11:53:06.759Z,8.35
2018-06-11T11:55:41.279Z,7.50
2018-06-11T11:58:15.672Z,6.33
2018-06-11T12:00:49.573Z,6.40
2018-06-11T12:03:24.246Z,8.75
2018-06-11T12:05:58.144Z,7.28
2018-06-11T12:08:32.456Z,5.83
2018-06-11T12:11:07.916Z,6.20
2018-06-11T12:13:41.889Z,5.17
2018-06-11T12:16:15.896Z,5.90
2018-06-11T12:18:49.959Z,5.03
2018-06-11T12:21:24.237Z,5.08
2018-06-11T12:23:58.452Z,5.17
2018-06-11T12:26:32.834Z,7.53
2018-06-11T12:29:07.260Z,5.40
2018-06-11T12:31:41.308Z,5.70
2018-06-11T12:34:15.146Z,5.25
2018-06-11T12:36:49.661Z,7.22
2018-06-11T12:39:23.851Z,6.70
2018-06-11T12:41:58.127Z,6.53
2018-06-11T12:44:31.872Z,6.28
2018-06-11T12:47:06.280Z,5.90
2018-06-11T12:49:39.976Z,7.20
2018-06-11T12:52:14.617Z,6.42
2018-06-11T12:54:48.688Z,6.25
2018-06-11T12:57:22.926Z,6.15
2018-06-11T13:00:01.663Z,7.65
2018-06-11T13:02:36.258Z,5.87
2018-06-11T13:05:10.376Z,6.60
2018-06-11T13:07:44.610Z,8.63
2018-06-11T13:10:18.867Z,8.05
2018-06-11T13:12:52.869Z,6.70
2018-06-11T13:15:27.336Z,6.10
2018-06-11T13:18:01.367Z,6.35
2018-06-11T13:20:35.332Z,6.80
2018-06-11T13:23:09.927Z,6.53
2018-06-11T13:25:44.271Z,6.80
2018-06-11T13:28:19.303Z,5.50
2018-06-11T13:30:54.019Z,6.42
2018-06-11T13:33:28.456Z,6.25
2018-06-11T13:36:02.527Z,6.33
2018-06-11T13:38:36.848Z,6.42
2018-06-11T13:41:10.737Z,6.72
2018-06-11T13:43:48.003Z,7.67
2018-06-11T13:46:21.931Z,7.25
2018-06-11T13:48:56.560Z,7.60
2018-06-11T13:51:30.777Z,7.58
2018-06-11T13:54:04.716Z,6.22
2018-06-11T13:56:39.009Z,7.40
2018-06-11T13:59:12.771Z,6.65
2018-06-11T14:01:46.878Z,6.97
2018-06-11T14:04:20.652Z,6.08
2018-06-11T14:06:54.701Z,7.75
2018-06-11T14:09:29.368Z,6.12
2018-06-11T14:12:03.467Z,6.17
2018-06-11T14:14:38.008Z,6.95
2018-06-11T14:17:12.132Z,6.60
2018-06-11T14:19:46.174Z,7.62
2018-06-11T14:22:20.776Z,5.87
2018-06-11T14:24:54.677Z,7.72
2018-06-11T14:27:28.791Z,8.08
2018-06-11T14:30:02.877Z,6.58
2018-06-11T14:32:36.991Z,5.85
2018-06-11T14:35:11.073Z,5.90
2018-06-11T14:37:45.337Z,6.25
2018-06-11T14:40:19.786Z,5.85
2018-06-11T14:42:53.803Z,6.15
2018-06-11T14:45:28.193Z,6.55
2018-06-11T14:48:02.358Z,7.78
2018-06-11T14:50:36.417Z,7.78
2018-06-11T14:53:10.320Z,6.08
2018-06-11T14:55:44.441Z,6.00
2018-06-11T14:58:19.226Z,6.95
2018-06-11T15:00:53.393Z,6.30
2018-06-11T15:03:27.497Z,6.22
2018-06-11T15:06:01.627Z,6.33
2018-06-11T15:08:35.910Z,5.33
2018-06-11T15:11:10.048Z,5.47
2018-06-11T15:13:44.342Z,5.42
2018-06-11T15:16:18.484Z,5.28
2018-06-11T15:18:52.527Z,5.92
2018-06-11T15:21:26.631Z,6.20
2018-06-11T15:24:00.630Z,5.65
2018-06-11T15:26:34.725Z,5.47
2018-06-11T15:29:08.645Z,5.83
2018-06-11T15:31:42.756Z,6.03
2018-06-11T15:34:16.991Z,6.03
2018-06-11T15:36:51.129Z,6.25
2018-06-11T15:39:25.371Z,6.28
2018-06-11T15:41:59.363Z,6.75
2018-06-11T15:44:33.598Z,6.37
2018-06-11T15:47:07.906Z,5.70
2018-06-11T15:49:41.742Z,6.65
2018-06-11T15:52:15.716Z,6.70
2018-06-11T15:54:50.007Z,7.80
2018-06-11T15:57:24.288Z,6.17
2018-06-11T15:59:58.493Z,6.08
2018-06-11T16:02:33.549Z,6.75
2018-06-11T16:05:07.679Z,6.80
2018-06-11T16:07:41.871Z,6.25
2018-06-11T16:10:16.173Z,7.10
2018-06-11T16:12:50.140Z,6.22
2018-06-11T16:15:24.226Z,6.50
2018-06-11T16:17:58.659Z,7.05
2018-06-11T16:20:32.677Z,6.92
2018-06-11T16:23:06.765Z,10.85
2018-06-11T16:25:40.674Z,6.85
2018-06-11T16:28:14.910Z,6.60
2018-06-11T16:30:49.106Z,6.25
2018-06-11T16:33:23.238Z,5.90
2018-06-11T16:35:57.439Z,6.28
2018-06-11T16:38:31.511Z,6.83
2018-06-11T16:41:05.932Z,7.10
2018-06-11T16:43:40.382Z,6.65
2018-06-11T16:46:14.708Z,7.25
2018-06-11T16:48:48.890Z,7.83
2018-06-11T16:51:22.911Z,7.15
2018-06-11T16:53:56.759Z,6.67
2018-06-11T16:56:31.047Z,8.90
2018-06-11T16:59:05.373Z,7.75
2018-06-11T17:01:39.685Z,6.95
2018-06-11T17:04:14.275Z,7.30
2018-06-11T17:06:48.831Z,7.00
2018-06-11T17:09:22.842Z,7.05
2018-06-11T17:11:56.890Z,7.40
2018-06-11T17:14:30.733Z,6.80
2018-06-11T17:17:04.837Z,7.80
2018-06-11T17:19:38.956Z,5.70
2018-06-11T17:22:13.231Z,7.22
2018-06-11T17:24:47.746Z,10.23
2018-06-11T17:27:21.599Z,6.58
2018-06-11T17:29:56.281Z,7.85
2018-06-11T17:32:31.188Z,8.90
2018-06-11T17:35:05.572Z,6.42
2018-06-11T17:37:40.486Z,6.15
2018-06-11T17:40:14.779Z,7.00
2018-06-11T17:42:48.988Z,7.50
2018-06-11T17:45:23.223Z,6.70
2018-06-11T17:47:57.294Z,5.90
2018-06-11T17:50:31.489Z,8.75
2018-06-11T17:53:09.679Z,8.03
2018-06-11T17:55:45.067Z,7.25
2018-06-11T17:58:19.179Z,6.22
2018-06-11T18:00:53.805Z,7.55
2018-06-11T18:03:27.832Z,6.80
2018-06-11T18:06:02.234Z,9.10
2018-06-11T18:08:36.409Z,6.67
2018-06-11T18:11:10.877Z,6.30
2018-06-11T18:13:45.415Z,6.20
2018-06-11T18:16:19.386Z,8.13
2018-06-11T18:18:53.709Z,6.65
2018-06-11T18:21:27.817Z,7.53
2018-06-11T18:24:01.876Z,8.90
2018-06-11T18:26:35.931Z,9.58
2018-06-11T18:29:10.157Z,11.28
2018-06-11T18:31:44.566Z,7.45
2018-06-11T18:34:18.667Z,7.78
2018-06-11T18:36:53.851Z,8.93
2018-06-11T18:39:27.981Z,7.35
2018-06-11T18:42:02.075Z,7.15
2018-06-11T18:44:36.368Z,10.32
2018-06-11T18:47:11.212Z,9.63
2018-06-11T18:49:49.911Z,7.83
2018-06-11T18:52:24.117Z,8.00
2018-06-11T18:54:58.412Z,7.70
2018-06-11T18:57:32.849Z,7.50
2018-06-11T19:00:07.599Z,7.75
2018-06-11T19:02:41.966Z,7.25
2018-06-11T19:05:16.227Z,7.53
2018-06-11T19:07:50.732Z,7.78
2018-06-11T19:10:24.892Z,8.55
2018-06-11T19:12:59.175Z,9.38
2018-06-11T19:15:33.408Z,7.60
2018-06-11T19:18:08.171Z,9.30
2018-06-11T19:20:42.518Z,9.88
2018-06-11T19:23:16.643Z,10.03
2018-06-11T19:25:50.657Z,8.75
2018-06-11T19:28:25.010Z,8.78
2018-06-11T19:31:00.461Z,8.43
2018-06-11T19:33:34.958Z,8.30
2018-06-11T19:36:09.048Z,9.85
2018-06-11T19:38:43.294Z,9.90
2018-06-11T19:41:17.454Z,8.33
2018-06-11T19:43:51.954Z,10.05
2018-06-11T19:46:25.982Z,8.05
2018-06-11T19:49:00.512Z,8.95
2018-06-11T19:51:34.871Z,11.20
2018-06-11T19:54:09.024Z,11.55
2018-06-11T19:56:43.589Z,9.38
2018-06-11T19:59:17.427Z,8.10
2018-06-11T20:01:51.772Z,9.38
2018-06-11T20:04:25.944Z,8.05
2018-06-11T20:07:00.854Z,8.58
2018-06-11T20:09:35.408Z,11.50
2018-06-11T20:12:09.480Z,7.22
2018-06-11T20:14:43.748Z,9.43
2018-06-11T20:17:17.977Z,8.13
2018-06-11T20:19:53.072Z,7.87
2018-06-11T20:22:27.376Z,7.45
2018-06-11T20:25:02.195Z,8.10
2018-06-11T20:27:36.217Z,8.38
2018-06-11T20:30:10.908Z,7.83
2018-06-11T20:32:44.977Z,7.83
2018-06-11T20:35:19.052Z,8.65
2018-06-11T20:37:53.384Z,7.37
2018-06-11T20:40:27.305Z,9.35
2018-06-11T20:43:01.268Z,7.92
2018-06-11T20:45:35.277Z,8.60
2018-06-11T20:48:09.735Z,8.50
2018-06-11T20:50:44.050Z,8.20
2018-06-11T20:53:17.693Z,8.85
2018-06-11T20:55:51.720Z,8.80
2018-06-11T20:58:25.583Z,6.62
2018-06-11T21:00:59.843Z,8.58
2018-06-11T21:03:34.324Z,6.62
2018-06-11T21:06:08.474Z,10.00
2018-06-11T21:08:42.340Z,8.33
2018-06-11T21:11:16.474Z,9.28
2018-06-11T21:13:50.773Z,8.38
2018-06-11T21:16:25.035Z,6.97
2018-06-11T21:18:59.403Z,8.50
2018-06-11T21:21:33.357Z,7.12
2018-06-11T21:24:07.819Z,6.95
2018-06-11T21:26:41.922Z,7.95
2018-06-11T21:29:16.394Z,8.58
2018-06-11T21:31:51.020Z,9.25
2018-06-11T21:34:25.107Z,8.40
2018-06-11T21:36:59.275Z,7.25
2018-06-11T21:39:33.200Z,9.48
2018-06-11T21:42:07.372Z,8.43
2018-06-11T21:44:41.452Z,9.53
2018-06-11T21:47:15.718Z,7.97
2018-06-11T21:49:49.775Z,9.28
2018-06-11T21:52:23.892Z,9.10
2018-06-11T21:54:57.772Z,7.33
2018-06-11T21:57:31.972Z,8.18
2018-06-11T22:00:06.953Z,9.98
2018-06-11T22:02:41.186Z,8.50
2018-06-11T22:05:15.231Z,7.90
2018-06-11T22:07:49.188Z,8.83
2018-06-11T22:10:23.662Z,12.25
2018-06-11T22:12:57.749Z,8.48
2018-06-11T22:15:31.787Z,10.17
2018-06-11T22:18:05.767Z,9.63
2018-06-11T22:20:39.612Z,8.90
2018-06-11T22:23:13.933Z,8.83
2018-06-11T22:25:47.811Z,7.93
2018-06-11T22:28:21.977Z,8.10
2018-06-11T22:30:56.208Z,9.10
2018-06-11T22:33:30.270Z,9.70
2018-06-11T22:36:04.388Z,10.40
2018-06-11T22:38:38.372Z,9.03
2018-06-11T22:41:12.706Z,9.67
2018-06-11T22:43:46.602Z,13.97
2018-06-11T22:46:20.951Z,11.40
2018-06-11T22:48:55.463Z,9.77
2018-06-11T22:51:29.536Z,12.13
2018-06-11T22:54:03.662Z,11.63
2018-06-11T22:56:37.628Z,12.17
2018-06-11T22:59:11.627Z,8.97
2018-06-11T23:01:45.789Z,9.10
2018-06-11T23:04:20.093Z,10.40
2018-06-11T23:06:54.147Z,9.63
2018-06-11T23:09:28.141Z,11.03
2018-06-11T23:12:02.272Z,10.80
2018-06-11T23:14:37.067Z,12.93
2018-06-11T23:17:10.904Z,10.57
2018-06-11T23:19:44.943Z,10.83
2018-06-11T23:22:18.837Z,10.77
2018-06-11T23:24:52.807Z,12.20
2018-06-11T23:27:26.940Z,19.00
2018-06-11T23:30:00.865Z,11.17
2018-06-11T23:32:34.916Z,14.03
2018-06-11T23:35:08.862Z,12.70
2018-06-11T23:37:42.874Z,14.50
2018-06-11T23:40:16.802Z,14.33
2018-06-11T23:42:50.818Z,14.83
2018-06-11T23:45:24.632Z,12.97
2018-06-11T23:47:58.824Z,13.03
2018-06-11T23:50:33.109Z,14.20
2018-06-11T23:53:07.178Z,14.40
2018-06-11T23:55:41.076Z,13.70
2018-06-11T23:58:14.969Z,11.60
